Time;durP1;ratioP1;P1;durP2;ratioP2;P2;SDS_P1;SDS_P2;PMS_P1;PMS_P2;Temp;Humidity;BMP_temperature;BMP_pressure;BME280_temperature;BME280_humidity;BME280_pressure;Samples;Min_cycle;Max_cycle;Signal;HPM_P1;HPM_P2
2022/12/08 00:01:29;;;;;;;;;;;2.00;99.90;;;;;;5014986;28;20250;-76
2022/12/08 00:03:55;;;;;;;;;;;2.00;99.90;;;;;;5013045;28;20251;-76
2022/12/08 00:09:23;;;;;;;;;;;1.90;99.90;;;;;;5014022;28;19999;-75
2022/12/08 00:11:50;;;;;;;;;;;1.90;99.90;;;;;;5013023;28;20345;-76
2022/12/08 00:14:15;;;;;;;;;;;1.80;99.90;;;;;;5013979;28;19928;-75
2022/12/08 00:16:41;;;;;;;;;;;1.80;99.90;;;;;;5012586;28;19909;-75
2022/12/08 00:19:06;;;;;;;;;;;1.80;99.90;;;;;;5013494;28;19928;-74
2022/12/08 00:21:32;;;;;;;;;;;1.70;99.90;;;;;;5012359;28;20385;-74
2022/12/08 00:23:57;;;;;;;;;;;1.70;99.90;;;;;;5013283;28;19909;-74
2022/12/08 00:26:23;;;;;;;;;;;1.70;99.90;;;;;;5013314;28;19936;-74
2022/12/08 00:28:49;;;;;;;;;;;1.70;99.90;;;;;;5013852;28;20013;-74
2022/12/08 00:31:14;;;;;;;;;;;1.70;99.90;;;;;;5013219;28;19914;-75
2022/12/08 00:33:40;;;;;;;;;;;1.70;99.90;;;;;;5013363;28;20059;-74
2022/12/08 00:36:10;;;;;;;;;;;1.60;99.90;;;;;;5012904;28;19914;-74
2022/12/08 00:38:35;;;;;;;;;;;1.60;99.90;;;;;;5013211;28;19914;-74
2022/12/08 00:41:01;;;;;;;;;;;1.50;99.90;;;;;;5011529;28;19917;-75
2022/12/08 00:43:27;;;;;;;;;;;1.50;99.90;;;;;;5013566;28;19920;-75
2022/12/08 00:45:52;;;;;;;;;;;1.50;99.90;;;;;;5012947;28;20343;-75
2022/12/08 00:48:18;;;;;;;;;;;1.50;99.90;;;;;;5013452;28;19952;-76
2022/12/08 00:50:43;;;;;;;;;;;1.50;99.90;;;;;;5012954;28;20367;-76
2022/12/08 00:53:09;;;;;;;;;;;1.50;99.90;;;;;;5012476;28;19909;-75
2022/12/08 00:55:35;;;;;;;;;;;1.50;99.90;;;;;;5013207;28;19925;-77
2022/12/08 00:58:00;;;;;;;;;;;1.50;99.90;;;;;;5013369;28;19909;-76
2022/12/08 01:00:26;;;;;;;;;;;1.50;99.90;;;;;;5013277;28;20012;-76
2022/12/08 01:02:51;;;;;;;;;;;1.50;99.90;;;;;;5011766;28;19921;-81
2022/12/08 01:05:17;;;;;;;;;;;1.50;99.90;;;;;;5013487;28;19910;-77
2022/12/08 01:07:42;;;;;;;;;;;1.50;99.90;;;;;;5013443;28;19909;-77
2022/12/08 01:10:08;;;;;;;;;;;1.50;99.90;;;;;;5012957;28;19939;-77
2022/12/08 01:12:34;;;;;;;;;;;1.50;99.90;;;;;;5013263;28;19933;-77
2022/12/08 01:14:59;;;;;;;;;;;1.50;99.90;;;;;;5012582;28;19917;-77
2022/12/08 01:17:25;;;;;;;;;;;1.50;99.90;;;;;;5013426;28;19920;-77
2022/12/08 01:19:51;;;;;;;;;;;1.50;99.90;;;;;;5013298;28;19910;-77
2022/12/08 01:22:16;;;;;;;;;;;1.50;99.90;;;;;;5012504;28;20302;-77
2022/12/08 01:24:42;;;;;;;;;;;1.50;99.90;;;;;;5012991;28;20359;-77
2022/12/08 01:27:07;;;;;;;;;;;1.50;99.90;;;;;;5012401;28;20000;-77
2022/12/08 01:29:33;;;;;;;;;;;1.50;99.90;;;;;;5012840;28;19909;-77
2022/12/08 01:31:58;;;;;;;;;;;1.40;99.90;;;;;;5012525;28;19910;-77
2022/12/08 01:34:24;;;;;;;;;;;1.50;99.90;;;;;;5012970;28;19928;-77
2022/12/08 01:36:50;;;;;;;;;;;1.40;99.90;;;;;;5013006;28;20347;-78
2022/12/08 01:39:16;;;;;;;;;;;1.40;99.90;;;;;;5012692;28;20382;-77
2022/12/08 01:41:42;;;;;;;;;;;1.40;99.90;;;;;;5012736;28;20417;-77
2022/12/08 01:44:09;;;;;;;;;;;1.40;99.90;;;;;;5010877;28;19909;-78
2022/12/08 01:46:36;;;;;;;;;;;1.40;99.90;;;;;;5012642;28;19909;-77
2022/12/08 01:49:22;;;;;;;;;;;1.30;99.90;;;;;;5012195;28;19932;-78
2022/12/08 01:52:07;;;;;;;;;;;1.40;99.90;;;;;;5012548;28;19909;-78
2022/12/08 01:54:35;;;;;;;;;;;1.30;99.90;;;;;;5011912;28;20016;-78
2022/12/08 01:57:10;;;;;;;;;;;1.30;99.90;;;;;;5012296;28;19925;-78
2022/12/08 01:59:38;;;;;;;;;;;1.30;99.90;;;;;;5011681;28;19924;-78
2022/12/08 02:02:03;;;;;;;;;;;1.30;99.90;;;;;;5011804;28;19917;-78
2022/12/08 02:04:29;;;;;;;;;;;1.20;99.90;;;;;;5012474;28;19910;-78
2022/12/08 02:06:55;;;;;;;;;;;1.30;99.90;;;;;;5012166;28;20357;-81
2022/12/08 02:09:20;;;;;;;;;;;1.20;99.90;;;;;;5012128;28;20047;-77
2022/12/08 02:11:47;;;;;;;;;;;1.20;99.90;;;;;;5012245;28;19910;-77
2022/12/08 02:14:12;;;;;;;;;;;1.20;99.90;;;;;;5011510;28;19979;-78
2022/12/08 02:16:48;;;;;;;;;;;1.20;99.90;;;;;;5011952;28;19992;-79
2022/12/08 02:19:25;;;;;;;;;;;1.20;99.90;;;;;;5011775;28;19932;-79
2022/12/08 02:22:00;;;;;;;;;;;1.20;99.90;;;;;;5030123;28;19909;-77
2022/12/08 02:24:46;;;;;;;;;;;1.20;99.90;;;;;;5035348;28;19909;-78
2022/12/08 02:27:19;;;;;;;;;;;1.10;99.90;;;;;;5034608;28;19901;-77
2022/12/08 02:30:04;;;;;;;;;;;1.20;99.90;;;;;;5034378;28;19913;-78
2022/12/08 02:32:35;;;;;;;;;;;1.10;99.90;;;;;;5035027;28;20014;-77
2022/12/08 02:35:04;;;;;;;;;;;1.10;99.90;;;;;;5016539;28;20276;-78
2022/12/08 02:37:36;;;;;;;;;;;1.10;99.90;;;;;;5011666;28;19913;-77
2022/12/08 02:40:04;;;;;;;;;;;1.10;99.90;;;;;;5011278;28;19921;-76
2022/12/08 02:42:35;;;;;;;;;;;1.10;99.90;;;;;;5011644;28;19968;-76
2022/12/08 02:45:18;;;;;;;;;;;1.00;99.90;;;;;;5009596;28;19909;-77
2022/12/08 02:47:44;;;;;;;;;;;1.00;99.90;;;;;;5011567;28;19989;-76
2022/12/08 02:50:10;;;;;;;;;;;1.00;99.90;;;;;;5010537;28;20008;-77
2022/12/08 02:52:42;;;;;;;;;;;0.90;99.90;;;;;;5011147;28;19914;-77
2022/12/08 02:55:13;;;;;;;;;;;1.00;99.90;;;;;;5011372;28;19975;-78
2022/12/08 02:57:55;;;;;;;;;;;0.90;99.90;;;;;;5011442;28;20004;-77
2022/12/08 03:00:23;;;;;;;;;;;1.00;99.90;;;;;;5010594;28;20330;-77
2022/12/08 03:02:54;;;;;;;;;;;0.90;99.90;;;;;;5009722;28;20353;-77
2022/12/08 03:05:26;;;;;;;;;;;0.90;99.90;;;;;;5010909;28;19905;-77
2022/12/08 03:07:54;;;;;;;;;;;0.90;99.90;;;;;;5011668;28;19959;-78
2022/12/08 03:10:20;;;;;;;;;;;0.80;99.90;;;;;;5010865;28;19968;-77
2022/12/08 03:12:45;;;;;;;;;;;0.80;99.90;;;;;;5013390;28;19925;-77
2022/12/08 03:15:14;;;;;;;;;;;0.80;99.90;;;;;;5014560;28;20012;-78
2022/12/08 03:17:42;;;;;;;;;;;0.80;99.90;;;;;;5014063;28;19963;-77
2022/12/08 03:20:10;;;;;;;;;;;0.70;99.90;;;;;;5014691;28;19913;-77
2022/12/08 03:22:37;;;;;;;;;;;0.70;99.90;;;;;;5015741;28;20339;-78
2022/12/08 03:25:03;;;;;;;;;;;0.60;99.90;;;;;;5014849;28;19909;-81
2022/12/08 03:27:30;;;;;;;;;;;0.60;99.90;;;;;;5014578;28;19916;-76
2022/12/08 03:29:56;;;;;;;;;;;0.60;99.90;;;;;;5015128;28;19917;-77
2022/12/08 03:32:37;;;;;;;;;;;0.60;99.90;;;;;;5014634;28;19913;-77
2022/12/08 03:35:05;;;;;;;;;;;0.60;99.90;;;;;;5013445;28;19936;-80
2022/12/08 03:37:33;;;;;;;;;;;0.50;99.90;;;;;;5013121;28;20039;-78
2022/12/08 03:39:58;;;;;;;;;;;0.60;99.90;;;;;;5013741;28;19909;-77
2022/12/08 03:42:24;;;;;;;;;;;0.60;99.90;;;;;;5013094;28;19916;-77
2022/12/08 03:44:50;;;;;;;;;;;0.60;99.90;;;;;;5011975;28;20275;-76
2022/12/08 03:47:15;;;;;;;;;;;0.60;99.90;;;;;;5013029;28;20011;-76
2022/12/08 03:49:41;;;;;;;;;;;0.60;99.90;;;;;;5013671;28;19914;-77
2022/12/08 03:52:06;;;;;;;;;;;0.70;99.90;;;;;;5012880;28;19920;-77
2022/12/08 03:54:32;;;;;;;;;;;0.60;99.90;;;;;;5013396;28;19922;-77
2022/12/08 03:56:57;;;;;;;;;;;0.60;99.90;;;;;;5013576;28;20358;-77
2022/12/08 03:59:23;;;;;;;;;;;0.60;99.90;;;;;;5012960;28;19913;-77
2022/12/08 04:01:48;;;;;;;;;;;0.60;99.90;;;;;;5013434;28;20469;-77
2022/12/08 04:04:14;;;;;;;;;;;0.70;99.90;;;;;;5012503;28;19933;-77
2022/12/08 04:06:40;;;;;;;;;;;0.80;99.90;;;;;;5013357;28;20000;-76
2022/12/08 04:09:05;;;;;;;;;;;0.80;99.90;;;;;;5013066;28;19914;-81
2022/12/08 04:11:31;;;;;;;;;;;0.80;99.90;;;;;;5013057;28;20318;-77
2022/12/08 04:13:56;;;;;;;;;;;0.90;99.90;;;;;;5013453;28;20052;-77
2022/12/08 04:16:23;;;;;;;;;;;1.00;99.90;;;;;;5012906;28;19914;-76
2022/12/08 04:18:49;;;;;;;;;;;1.00;99.90;;;;;;5013430;28;20256;-77
2022/12/08 04:21:15;;;;;;;;;;;1.10;99.90;;;;;;5012693;28;19917;-77
2022/12/08 04:23:41;;;;;;;;;;;1.20;99.90;;;;;;5011398;28;20382;-77
2022/12/08 04:26:06;;;;;;;;;;;1.20;99.90;;;;;;5012705;28;20001;-80
2022/12/08 04:28:32;;;;;;;;;;;1.20;99.90;;;;;;5013254;28;19916;-76
2022/12/08 04:30:58;;;;;;;;;;;1.20;99.90;;;;;;5013022;28;19909;-76
2022/12/08 04:33:23;;;;;;;;;;;1.20;99.90;;;;;;4937825;28;2131277;-76
2022/12/08 04:35:49;;;;;;;;;;;1.20;99.90;;;;;;5013407;28;20070;-76
2022/12/08 04:38:14;;;;;;;;;;;1.30;99.90;;;;;;5013108;28;20367;-77
2022/12/08 04:40:40;;;;;;;;;;;1.30;99.90;;;;;;5013830;28;19909;-75
2022/12/08 04:43:07;;;;;;;;;;;1.30;99.90;;;;;;5013578;28;19920;-78
2022/12/08 04:45:33;;;;;;;;;;;1.30;99.90;;;;;;5013829;28;19909;-76
2022/12/08 04:47:59;;;;;;;;;;;1.30;99.90;;;;;;5013450;28;19916;-75
2022/12/08 04:50:25;;;;;;;;;;;1.40;99.90;;;;;;5013060;28;20005;-75
2022/12/08 04:52:50;;;;;;;;;;;1.40;99.90;;;;;;5012107;28;19960;-76
2022/12/08 04:55:16;;;;;;;;;;;1.40;99.90;;;;;;5012920;28;20335;-76
2022/12/08 04:57:41;;;;;;;;;;;1.40;99.90;;;;;;5013343;28;19968;-75
2022/12/08 05:00:07;;;;;;;;;;;1.40;99.90;;;;;;5012838;28;19918;-80
2022/12/08 05:02:33;;;;;;;;;;;1.50;99.90;;;;;;5012826;28;19909;-75
2022/12/08 05:04:58;;;;;;;;;;;1.50;99.90;;;;;;5013063;28;19909;-76
2022/12/08 05:07:24;;;;;;;;;;;1.50;99.90;;;;;;5012972;28;19909;-75
2022/12/08 05:09:49;;;;;;;;;;;1.50;99.90;;;;;;5012893;28;20224;-76
2022/12/08 05:12:15;;;;;;;;;;;1.60;99.90;;;;;;5011357;28;19914;-76
2022/12/08 05:14:40;;;;;;;;;;;1.50;99.90;;;;;;5012867;28;19920;-76
2022/12/08 05:17:06;;;;;;;;;;;1.50;99.90;;;;;;5012936;28;19949;-77
2022/12/08 05:19:32;;;;;;;;;;;1.50;99.90;;;;;;5012739;28;19910;-77
2022/12/08 05:21:57;;;;;;;;;;;1.50;99.90;;;;;;5012945;28;19956;-76
2022/12/08 05:24:23;;;;;;;;;;;1.40;99.90;;;;;;5011118;28;19924;-77
2022/12/08 05:26:48;;;;;;;;;;;1.50;99.90;;;;;;5012887;28;20374;-76
2022/12/08 05:29:14;;;;;;;;;;;1.50;99.90;;;;;;5012580;28;19949;-77
2022/12/08 05:31:39;;;;;;;;;;;1.50;99.90;;;;;;5012903;28;19909;-76
2022/12/08 05:34:05;;;;;;;;;;;1.50;99.90;;;;;;5012264;28;19925;-77
2022/12/08 05:36:30;;;;;;;;;;;1.40;99.90;;;;;;5011497;28;19906;-76
2022/12/08 05:38:57;;;;;;;;;;;1.50;99.90;;;;;;5013299;28;20047;-76
2022/12/08 05:41:22;;;;;;;;;;;1.50;99.90;;;;;;5012419;28;20289;-76
2022/12/08 05:43:48;;;;;;;;;;;1.50;99.90;;;;;;5011526;28;19910;-77
2022/12/08 05:46:14;;;;;;;;;;;1.50;99.90;;;;;;5012322;28;19910;-78
2022/12/08 05:48:40;;;;;;;;;;;1.50;99.90;;;;;;5012997;28;20004;-77
2022/12/08 05:51:07;;;;;;;;;;;1.60;99.90;;;;;;5012809;28;19914;-77
2022/12/08 05:53:32;;;;;;;;;;;1.60;99.90;;;;;;5012573;28;20020;-77
2022/12/08 05:55:58;;;;;;;;;;;1.50;99.90;;;;;;5012569;28;20331;-77
2022/12/08 05:58:23;;;;;;;;;;;1.60;99.90;;;;;;5012222;28;19909;-76
2022/12/08 06:00:49;;;;;;;;;;;1.60;99.90;;;;;;5011313;28;19909;-76
2022/12/08 06:03:15;;;;;;;;;;;1.60;99.90;;;;;;5011764;28;20004;-77
2022/12/08 06:05:42;;;;;;;;;;;1.60;99.90;;;;;;5012553;28;19966;-75
2022/12/08 06:08:08;;;;;;;;;;;1.60;99.90;;;;;;5011368;28;19992;-76
2022/12/08 06:10:33;;;;;;;;;;;1.60;99.90;;;;;;5012121;28;19955;-77
2022/12/08 06:12:59;;;;;;;;;;;1.60;99.90;;;;;;5012488;28;19985;-76
2022/12/08 06:15:25;;;;;;;;;;;1.60;99.90;;;;;;5011978;28;19918;-76
2022/12/08 06:17:50;;;;;;;;;;;1.70;99.90;;;;;;5011800;28;19909;-76
2022/12/08 06:20:16;;;;;;;;;;;1.70;99.90;;;;;;5012202;28;20000;-77
2022/12/08 06:22:41;;;;;;;;;;;1.70;99.90;;;;;;5011828;28;19917;-76
2022/12/08 06:25:08;;;;;;;;;;;1.70;99.90;;;;;;5012141;28;19909;-77
2022/12/08 06:27:33;;;;;;;;;;;1.80;99.90;;;;;;5011742;28;19992;-77
2022/12/08 06:29:59;;;;;;;;;;;1.80;99.90;;;;;;5011587;28;19956;-76
2022/12/08 06:32:25;;;;;;;;;;;1.80;99.90;;;;;;5011554;28;20304;-76
2022/12/08 06:34:51;;;;;;;;;;;1.80;99.90;;;;;;5011750;28;20023;-76
2022/12/08 06:37:17;;;;;;;;;;;1.80;99.90;;;;;;5011667;28;20016;-77
2022/12/08 06:39:42;;;;;;;;;;;1.80;99.90;;;;;;5011714;28;20271;-75
2022/12/08 06:44:52;;;;;;;;;;;1.80;99.90;;;;;;5012027;28;20365;-77
2022/12/08 06:47:19;;;;;;;;;;;1.80;99.90;;;;;;5011264;28;20008;-78
2022/12/08 06:49:45;;;;;;;;;;;1.80;99.90;;;;;;5012272;28;20382;-77
2022/12/08 06:52:10;;;;;;;;;;;1.80;99.90;;;;;;5012140;28;19919;-77
2022/12/08 06:54:36;;;;;;;;;;;1.80;99.90;;;;;;5012705;28;19999;-78
2022/12/08 06:57:01;;;;;;;;;;;1.70;99.90;;;;;;5015278;28;20228;-77
2022/12/08 06:59:27;;;;;;;;;;;1.80;99.90;;;;;;5014591;28;19948;-78
2022/12/08 07:01:52;;;;;;;;;;;1.80;99.90;;;;;;5015600;28;19914;-77
2022/12/08 07:04:18;;;;;;;;;;;1.80;99.90;;;;;;5014593;28;20217;-77
2022/12/08 07:06:44;;;;;;;;;;;1.80;99.90;;;;;;5014138;28;20010;-77
2022/12/08 07:09:09;;;;;;;;;;;1.80;99.90;;;;;;5013430;28;19909;-77
2022/12/08 07:11:36;;;;;;;;;;;1.80;99.90;;;;;;5011529;28;20585;-77
2022/12/08 07:14:02;;;;;;;;;;;1.80;99.90;;;;;;5012575;28;19948;-77
2022/12/08 07:16:27;;;;;;;;;;;1.90;99.90;;;;;;5011722;28;19916;-76
2022/12/08 07:18:53;;;;;;;;;;;1.90;99.90;;;;;;5012012;28;19913;-77
2022/12/08 07:21:18;;;;;;;;;;;1.80;99.90;;;;;;5014235;28;19939;-81
2022/12/08 07:23:45;;;;;;;;;;;1.90;99.90;;;;;;5013109;28;19963;-77
2022/12/08 07:26:11;;;;;;;;;;;1.80;99.90;;;;;;5013302;28;20095;-76
2022/12/08 07:28:38;;;;;;;;;;;1.90;99.90;;;;;;5012687;28;20095;-76
2022/12/08 07:31:03;;;;;;;;;;;1.90;99.90;;;;;;5013022;28;19914;-75
2022/12/08 07:33:29;;;;;;;;;;;1.80;99.90;;;;;;5011912;28;19968;-75
2022/12/08 07:35:56;;;;;;;;;;;1.80;99.90;;;;;;5012916;28;20267;-76
2022/12/08 07:38:22;;;;;;;;;;;1.90;99.90;;;;;;5012579;28;19910;-76
2022/12/08 07:40:48;;;;;;;;;;;1.80;99.90;;;;;;5010819;28;19909;-76
2022/12/08 07:43:13;;;;;;;;;;;1.80;99.90;;;;;;5012634;28;19986;-75
2022/12/08 07:45:39;;;;;;;;;;;1.90;99.90;;;;;;5011887;28;20437;-75
2022/12/08 07:48:05;;;;;;;;;;;1.90;99.90;;;;;;5012359;28;19913;-75
2022/12/08 07:50:31;;;;;;;;;;;1.90;99.90;;;;;;5012003;28;19909;-75
2022/12/08 07:52:56;;;;;;;;;;;1.90;99.90;;;;;;5011941;28;19932;-76
2022/12/08 07:55:22;;;;;;;;;;;1.90;99.90;;;;;;5011304;28;20007;-76
2022/12/08 07:57:48;;;;;;;;;;;1.90;99.90;;;;;;5012581;28;19913;-76
2022/12/08 08:00:14;;;;;;;;;;;1.80;99.90;;;;;;5015169;28;20366;-77
2022/12/08 08:02:40;;;;;;;;;;;1.90;99.90;;;;;;5014576;28;19954;-77
2022/12/08 08:05:06;;;;;;;;;;;1.80;99.90;;;;;;5013925;28;19972;-77
2022/12/08 08:07:31;;;;;;;;;;;1.80;99.90;;;;;;5013719;28;19909;-76
2022/12/08 08:09:57;;;;;;;;;;;1.80;99.90;;;;;;5014452;28;19909;-76
2022/12/08 08:12:22;;;;;;;;;;;1.80;99.90;;;;;;5013548;28;20004;-78
2022/12/08 08:14:48;;;;;;;;;;;1.70;99.90;;;;;;5014176;28;19917;-76
2022/12/08 08:17:14;;;;;;;;;;;1.70;99.90;;;;;;5014095;28;20003;-78
2022/12/08 08:19:39;;;;;;;;;;;1.70;99.90;;;;;;5013692;28;19910;-77
2022/12/08 08:22:05;;;;;;;;;;;1.60;99.90;;;;;;5012557;28;20419;-77
2022/12/08 08:24:30;;;;;;;;;;;1.60;99.90;;;;;;5012118;28;19917;-77
2022/12/08 08:26:56;;;;;;;;;;;1.60;99.90;;;;;;5013585;28;19913;-78
2022/12/08 08:29:21;;;;;;;;;;;1.60;99.90;;;;;;5014071;28;20024;-80
2022/12/08 08:31:47;;;;;;;;;;;1.60;99.90;;;;;;5014317;28;20387;-77
2022/12/08 08:34:12;;;;;;;;;;;1.60;99.90;;;;;;5014472;28;19921;-76
2022/12/08 08:36:38;;;;;;;;;;;1.50;99.90;;;;;;5014455;28;19916;-76
2022/12/08 08:39:04;;;;;;;;;;;1.50;99.90;;;;;;5014751;28;19910;-76
2022/12/08 08:41:29;;;;;;;;;;;1.40;99.90;;;;;;5013892;28;19952;-76
2022/12/08 08:43:55;;;;;;;;;;;1.40;99.90;;;;;;5014444;28;19920;-76
2022/12/08 08:46:20;;;;;;;;;;;1.40;99.90;;;;;;5014965;28;19979;-76
2022/12/08 08:48:46;;;;;;;;;;;1.40;99.90;;;;;;5012394;28;19909;-76
2022/12/08 08:51:13;;;;;;;;;;;1.40;99.90;;;;;;5014381;28;20292;-76
2022/12/08 08:53:39;;;;;;;;;;;1.40;99.90;;;;;;5013712;28;20310;-76
2022/12/08 08:56:11;;;;;;;;;;;1.40;99.90;;;;;;5013850;28;19939;-77
2022/12/08 08:58:37;;;;;;;;;;;1.40;99.90;;;;;;5014187;28;19933;-76
2022/12/08 09:01:02;;;;;;;;;;;1.40;99.90;;;;;;5013316;28;19910;-77
2022/12/08 09:03:28;;;;;;;;;;;1.40;99.90;;;;;;5012668;28;19909;-76
2022/12/08 09:05:54;;;;;;;;;;;1.40;99.90;;;;;;5012850;28;19909;-76
2022/12/08 09:08:20;;;;;;;;;;;1.40;99.90;;;;;;5013075;28;19969;-77
2022/12/08 09:10:46;;;;;;;;;;;1.40;99.90;;;;;;5011192;28;20010;-76
2022/12/08 09:13:11;;;;;;;;;;;1.50;99.90;;;;;;5013110;28;19956;-76
2022/12/08 09:15:37;;;;;;;;;;;1.50;99.90;;;;;;5011222;28;20420;-77
2022/12/08 09:18:05;;;;;;;;;;;1.60;99.90;;;;;;5012955;28;20319;-76
2022/12/08 09:20:31;;;;;;;;;;;1.60;99.90;;;;;;5012727;28;19909;-77
2022/12/08 09:22:57;;;;;;;;;;;1.60;99.90;;;;;;5012883;28;20426;-76
2022/12/08 09:25:22;;;;;;;;;;;1.70;99.90;;;;;;5013102;28;19948;-77
2022/12/08 09:27:48;;;;;;;;;;;1.70;99.90;;;;;;5012424;28;20278;-76
2022/12/08 09:30:13;;;;;;;;;;;1.80;99.90;;;;;;5013122;28;19984;-76
2022/12/08 09:32:39;;;;;;;;;;;1.80;99.90;;;;;;5012217;28;19909;-76
2022/12/08 09:35:05;;;;;;;;;;;1.90;99.90;;;;;;5012887;28;19929;-79
2022/12/08 09:37:30;;;;;;;;;;;1.90;99.90;;;;;;5012146;28;20335;-77
2022/12/08 09:39:56;;;;;;;;;;;2.00;99.90;;;;;;5012346;28;19929;-77
2022/12/08 09:42:28;;;;;;;;;;;2.00;99.90;;;;;;5012156;28;20003;-77
2022/12/08 09:45:04;;;;;;;;;;;2.00;99.90;;;;;;5012274;28;19952;-79
2022/12/08 09:47:38;;;;;;;;;;;2.10;99.90;;;;;;5011450;28;19909;-77
2022/12/08 09:50:05;;;;;;;;;;;2.20;99.90;;;;;;5012366;28;19910;-77
2022/12/08 09:52:39;;;;;;;;;;;2.20;99.90;;;;;;5011885;28;19992;-77
2022/12/08 09:55:10;;;;;;;;;;;2.30;99.90;;;;;;5012261;28;20331;-80
2022/12/08 09:57:35;;;;;;;;;;;2.30;99.90;;;;;;5011839;28;19913;-77
2022/12/08 10:00:03;;;;;;;;;;;2.30;99.90;;;;;;5012346;28;20362;-77
2022/12/08 10:02:29;;;;;;;;;;;2.30;99.90;;;;;;5011859;28;20009;-77
2022/12/08 10:04:56;;;;;;;;;;;2.40;99.90;;;;;;5012365;28;19941;-75
2022/12/08 10:07:21;;;;;;;;;;;2.40;99.90;;;;;;5012277;28;19959;-77
2022/12/08 10:09:50;;;;;;;;;;;2.40;99.90;;;;;;5012257;28;20402;-77
2022/12/08 10:12:15;;;;;;;;;;;2.40;99.90;;;;;;5012134;28;20329;-77
2022/12/08 10:14:46;;;;;;;;;;;2.50;99.90;;;;;;5011243;28;19929;-76
2022/12/08 10:17:14;;;;;;;;;;;2.50;99.90;;;;;;5011773;28;20320;-77
2022/12/08 10:19:41;;;;;;;;;;;2.50;99.90;;;;;;5011993;28;19909;-77
2022/12/08 10:22:26;;;;;;;;;;;2.60;99.90;;;;;;5011103;28;19913;-77
2022/12/08 10:24:57;;;;;;;;;;;2.60;99.90;;;;;;5011222;28;20004;-77
2022/12/08 10:27:23;;;;;;;;;;;2.60;99.90;;;;;;5012327;28;19909;-77
2022/12/08 10:29:49;;;;;;;;;;;2.70;99.90;;;;;;5011695;28;19917;-77
2022/12/08 10:32:20;;;;;;;;;;;2.80;99.90;;;;;;5011923;28;19910;-78
2022/12/08 10:34:59;;;;;;;;;;;2.80;99.90;;;;;;5011179;28;20565;-77
2022/12/08 10:37:25;;;;;;;;;;;2.80;99.90;;;;;;5011540;28;20009;-77
2022/12/08 10:39:57;;;;;;;;;;;2.90;99.90;;;;;;5011105;28;19909;-78
2022/12/08 10:42:23;;;;;;;;;;;2.90;99.90;;;;;;5011806;28;19916;-77
2022/12/08 10:44:54;;;;;;;;;;;3.00;99.90;;;;;;5011301;28;19992;-78
2022/12/08 10:47:20;;;;;;;;;;;3.10;99.90;;;;;;5011572;28;19917;-78
2022/12/08 10:49:46;;;;;;;;;;;3.10;99.90;;;;;;5011340;28;20367;-78
2022/12/08 10:52:21;;;;;;;;;;;3.10;99.90;;;;;;5011520;28;19910;-77
2022/12/08 10:54:51;;;;;;;;;;;3.10;99.90;;;;;;5009888;28;20363;-78
2022/12/08 10:57:21;;;;;;;;;;;3.10;99.90;;;;;;5011367;28;19909;-78
2022/12/08 10:59:46;;;;;;;;;;;3.10;99.90;;;;;;5011017;28;19960;-78
2022/12/08 11:02:17;;;;;;;;;;;3.00;99.90;;;;;;5011309;28;20009;-78
2022/12/08 11:04:43;;;;;;;;;;;3.00;99.90;;;;;;5011096;28;19916;-79
2022/12/08 11:07:10;;;;;;;;;;;3.00;99.90;;;;;;5011589;28;19913;-78
2022/12/08 11:09:36;;;;;;;;;;;3.10;99.90;;;;;;5011012;28;19913;-78
2022/12/08 11:12:21;;;;;;;;;;;3.10;99.90;;;;;;5011440;28;20260;-78
2022/12/08 11:14:47;;;;;;;;;;;3.20;99.90;;;;;;5010474;28;19922;-78
2022/12/08 11:17:12;;;;;;;;;;;3.20;99.90;;;;;;5012499;28;20333;-77
2022/12/08 11:19:39;;;;;;;;;;;3.30;99.90;;;;;;5010747;28;20389;-77
2022/12/08 11:22:20;;;;;;;;;;;3.30;99.90;;;;;;5011305;28;19910;-79
2022/12/08 11:24:55;;;;;;;;;;;3.40;99.90;;;;;;5013913;28;19909;-79
2022/12/08 11:27:20;;;;;;;;;;;3.40;99.90;;;;;;5033134;28;20286;-78
2022/12/08 11:29:46;;;;;;;;;;;3.40;99.90;;;;;;5032184;28;19913;-78
2022/12/08 11:32:12;;;;;;;;;;;3.40;99.90;;;;;;5030569;28;19909;-78
2022/12/08 11:34:40;;;;;;;;;;;3.40;99.90;;;;;;5033908;28;19948;-79
2022/12/08 11:37:11;;;;;;;;;;;3.40;99.90;;;;;;5035381;28;19913;-77
2022/12/08 11:39:41;;;;;;;;;;;3.50;99.90;;;;;;5017914;28;19909;-77
2022/12/08 11:42:10;;;;;;;;;;;3.50;99.90;;;;;;5016709;28;20374;-77
2022/12/08 11:44:46;;;;;;;;;;;3.60;99.90;;;;;;5014316;28;19914;-78
2022/12/08 11:47:14;;;;;;;;;;;3.50;99.90;;;;;;5014956;28;19910;-77
2022/12/08 11:49:40;;;;;;;;;;;3.50;99.90;;;;;;5016092;28;19909;-78
2022/12/08 11:52:26;;;;;;;;;;;3.60;99.90;;;;;;5016349;28;20277;-77
2022/12/08 11:54:51;;;;;;;;;;;3.60;99.90;;;;;;5015150;28;19961;-77
2022/12/08 11:57:19;;;;;;;;;;;3.70;99.90;;;;;;5015685;28;19910;-76
2022/12/08 11:59:49;;;;;;;;;;;3.70;99.90;;;;;;5015421;28;19960;-77
2022/12/08 12:02:25;;;;;;;;;;;3.70;99.90;;;;;;5015809;28;20428;-77
2022/12/08 12:05:02;;;;;;;;;;;3.70;99.90;;;;;;5015641;28;20390;-76
2022/12/08 12:07:30;;;;;;;;;;;3.70;99.90;;;;;;5016085;28;20023;-77
2022/12/08 12:09:58;;;;;;;;;;;3.80;99.90;;;;;;5014550;28;20283;-77
2022/12/08 12:12:24;;;;;;;;;;;3.70;99.90;;;;;;5014768;28;19972;-77
2022/12/08 12:15:10;;;;;;;;;;;3.70;99.90;;;;;;5014117;28;19918;-77
2022/12/08 12:17:39;;;;;;;;;;;3.70;99.90;;;;;;4993158;28;19913;-77
2022/12/08 12:20:10;;;;;;;;;;;3.80;99.90;;;;;;5014950;28;19958;-77
2022/12/08 12:22:36;;;;;;;;;;;3.80;99.90;;;;;;5014344;28;20056;-77
2022/12/08 12:25:02;;;;;;;;;;;3.80;99.90;;;;;;5015144;28;19960;-77
2022/12/08 12:27:47;;;;;;;;;;;3.80;99.90;;;;;;5015001;28;20008;-78
2022/12/08 12:30:21;;;;;;;;;;;3.70;99.90;;;;;;5015435;28;19992;-76
2022/12/08 12:32:55;;;;;;;;;;;3.70;99.90;;;;;;5014922;28;19992;-76
2022/12/08 12:35:27;;;;;;;;;;;3.70;99.90;;;;;;5013915;28;19940;-77
2022/12/08 12:37:55;;;;;;;;;;;3.70;99.90;;;;;;5015176;28;19913;-76
2022/12/08 12:40:23;;;;;;;;;;;3.60;99.90;;;;;;5014310;28;19910;-76
2022/12/08 12:42:54;;;;;;;;;;;3.50;99.90;;;;;;5014333;28;19929;-77
2022/12/08 12:45:20;;;;;;;;;;;3.50;99.90;;;;;;5016005;28;19980;-77
2022/12/08 12:47:49;;;;;;;;;;;3.50;99.90;;;;;;5012682;28;20044;-76
2022/12/08 12:50:33;;;;;;;;;;;3.50;99.90;;;;;;5014637;28;19909;-76
2022/12/08 12:53:05;;;;;;;;;;;3.50;99.90;;;;;;5013779;28;20004;-77
2022/12/08 12:55:49;;;;;;;;;;;3.50;99.90;;;;;;5014510;28;20362;-76
2022/12/08 12:58:19;;;;;;;;;;;3.40;99.90;;;;;;5014425;28;19910;-76
2022/12/08 13:00:45;;;;;;;;;;;3.40;99.90;;;;;;5013735;28;19928;-76
2022/12/08 13:03:13;;;;;;;;;;;3.40;99.90;;;;;;5014411;28;19909;-76
2022/12/08 13:05:50;;;;;;;;;;;3.40;99.90;;;;;;5013921;28;19909;-77
2022/12/08 13:08:20;;;;;;;;;;;3.40;99.90;;;;;;5014268;28;19913;-76
2022/12/08 13:11:00;;;;;;;;;;;3.40;99.90;;;;;;5012740;28;20250;-76
2022/12/08 13:13:26;;;;;;;;;;;3.40;99.90;;;;;;5014161;28;19913;-76
2022/12/08 13:15:53;;;;;;;;;;;3.40;99.90;;;;;;5013290;28;19924;-76
2022/12/08 13:18:25;;;;;;;;;;;3.50;99.90;;;;;;5013878;28;19913;-76
2022/12/08 13:21:08;;;;;;;;;;;3.50;99.90;;;;;;5013365;28;19910;-76
2022/12/08 13:23:37;;;;;;;;;;;3.40;99.90;;;;;;5014033;28;19955;-76
2022/12/08 13:26:13;;;;;;;;;;;3.40;99.90;;;;;;5013957;28;20000;-76
2022/12/08 13:28:57;;;;;;;;;;;3.50;99.90;;;;;;5013580;28;19910;-82
2022/12/08 13:31:41;;;;;;;;;;;3.50;99.90;;;;;;5013351;28;19939;-76
2022/12/08 13:34:10;;;;;;;;;;;3.50;99.90;;;;;;5013367;28;20231;-74
2022/12/08 13:36:37;;;;;;;;;;;3.50;99.90;;;;;;5013136;28;19983;-75
2022/12/08 13:39:03;;;;;;;;;;;3.50;99.90;;;;;;5013115;28;19916;-77
2022/12/08 13:41:34;;;;;;;;;;;3.50;99.90;;;;;;5013079;28;19999;-75
2022/12/08 13:44:11;;;;;;;;;;;3.50;99.90;;;;;;5013089;28;19906;-76
2022/12/08 13:46:39;;;;;;;;;;;3.50;99.90;;;;;;5013356;28;19910;-77
2022/12/08 13:49:06;;;;;;;;;;;3.50;99.90;;;;;;5011965;28;20346;-76
2022/12/08 13:51:41;;;;;;;;;;;3.50;99.90;;;;;;5013533;28;20379;-76
2022/12/08 13:54:09;;;;;;;;;;;3.50;99.90;;;;;;5013086;28;20013;-77
2022/12/08 13:56:39;;;;;;;;;;;3.50;99.90;;;;;;5011227;28;20287;-76
2022/12/08 13:59:09;;;;;;;;;;;3.50;99.90;;;;;;5012924;28;19944;-77
2022/12/08 14:01:41;;;;;;;;;;;3.50;99.90;;;;;;5013331;28;19945;-77
2022/12/08 14:04:12;;;;;;;;;;;3.50;99.90;;;;;;5013095;28;19909;-76
2022/12/08 14:06:41;;;;;;;;;;;3.60;99.90;;;;;;5013529;28;20375;-77
2022/12/08 14:09:10;;;;;;;;;;;3.50;99.90;;;;;;5012669;28;19913;-77
2022/12/08 14:11:37;;;;;;;;;;;3.50;99.90;;;;;;5012450;28;19944;-77
2022/12/08 14:14:05;;;;;;;;;;;3.50;99.90;;;;;;5012272;28;19922;-76
2022/12/08 14:16:41;;;;;;;;;;;3.50;99.90;;;;;;5013577;28;19916;-77
2022/12/08 14:19:15;;;;;;;;;;;3.50;99.90;;;;;;5012747;28;19956;-77
2022/12/08 14:21:40;;;;;;;;;;;3.50;99.90;;;;;;5012732;28;19909;-81
2022/12/08 14:24:07;;;;;;;;;;;3.50;99.90;;;;;;5012991;28;19940;-76
2022/12/08 14:26:34;;;;;;;;;;;3.50;99.90;;;;;;5012832;28;19913;-77
2022/12/08 14:29:00;;;;;;;;;;;3.60;99.90;;;;;;5012495;28;19909;-77
2022/12/08 14:31:26;;;;;;;;;;;3.60;99.90;;;;;;5012932;28;20416;-77
2022/12/08 14:33:52;;;;;;;;;;;3.60;99.90;;;;;;5012196;28;19943;-77
2022/12/08 14:36:19;;;;;;;;;;;3.60;99.90;;;;;;5012499;28;19991;-76
2022/12/08 14:38:46;;;;;;;;;;;3.60;99.90;;;;;;5012006;28;19917;-77
2022/12/08 14:41:11;;;;;;;;;;;3.60;99.90;;;;;;5012002;28;19913;-77